Terminal Aerodrome Forecast
Issued by NWS

Home | Current Version | Previous Version | Text Only | Print | Product List | Glossary On
Versions: 1 2 3 4 5 6 7 8 9 10 11 12 13 14 15 16 17
011
FTUS45 KABQ 240535
TAFTCC
TAF
KTCC 240535Z 2406/2506 23010KT P6SM SKC
      TEMPO 2408/2412 16015KT SCT030
     FM241500 23012G20KT P6SM FEW030
     FM241900 23020G30KT P6SM FEW110=

USA.gov is the U.S. government's official web portal to all federal, state and local government web resources and services.